Cimil — LXCI — position and weather

sailwx.info

Track history (hours):
 
Tides and Currents Weather Stations Pressure Air Temp Water Temp Dewpoint Dewpoint Depression Visibility Wind Speed Wind Dir Waves Ship Positions

Cimil

Last reported at 2017-Dec-10 04:49 UTC. Time now 2017-Dec-10 23:57 UTC.
Position N 37°32' W 001°02'.

Length 100 m; draft 5.1 m.

Type: Tanker. MMSI: 253437000.

Date/timePositionNaut miles runAvg speedWind from/ knotsBaromVisibWave heightAir tempDewpointWater temp
2017-Dec-10 04:49N 37°32' W 001°02'3 9.1
2017-Dec-10 04:29N 37°31' W 000°59'3 6.6
2017-Dec-10 04:00N 37°29' W 000°56'3 6.4
2017-Dec-10 03:30N 37°26' W 000°53'4 8.0
2017-Dec-10 03:00N 37°24' W 000°49'4 7.5
2017-Dec-10 02:30N 37°23' W 000°44'4 8.0
2017-Dec-10 02:00N 37°23' W 000°39'12 8.0
2017-Dec-10 00:30N 37°23' W 000°24'6 8.3
2017-Dec-09 23:44N 37°24' W 000°16'8 8.2
2017-Dec-09 22:48N 37°24' W 000°07'  
2017-Dec-07 04:43N 36°22' E 013°44'311.2
2017-Dec-07 04:25N 36°21' E 013°48'511.2
2017-Dec-07 04:00N 36°19' E 013°53'611.2
2017-Dec-07 03:30N 36°16' E 013°59'611.1
2017-Dec-07 03:00N 36°13' E 014°06'510.7
2017-Dec-07 02:30N 36°11' E 014°11'611.1
2017-Dec-07 02:00N 36°08' E 014°17'510.8
2017-Dec-07 01:30N 36°06' E 014°23'510.8
2017-Dec-07 01:00N 36°03' E 014°29'611.1
2017-Dec-07 00:30N 36°00' E 014°35'611.1
2017-Dec-06 23:59N 35°57' E 014°40'5 9.9
2017-Dec-06 23:29N 35°53' E 014°45'  
2017-Dec-02 23:30N 31°16' E 029°42'  
Track history (hours):
 
Tides and Currents Weather Stations Pressure Air Temp Water Temp Dewpoint Dewpoint Depression Visibility Wind Speed Wind Dir Waves Ship Positions

Cimil

Last reported at 2017-Dec-10 04:49 UTC. Time now 2017-Dec-10 23:57 UTC.
Position N 37°32' W 001°02'.

Length 100 m; draft 5.1 m.

Type: Tanker. MMSI: 253437000.

Date/timePositionNaut miles runAvg speedWind from/ knotsBaromVisibWave heightAir tempDewpointWater temp
2017-Dec-10 04:49N 37°32' W 001°02'3 9.1
2017-Dec-10 04:29N 37°31' W 000°59'3 6.6
2017-Dec-10 04:00N 37°29' W 000°56'3 6.4
2017-Dec-10 03:30N 37°26' W 000°53'4 8.0
2017-Dec-10 03:00N 37°24' W 000°49'4 7.5
2017-Dec-10 02:30N 37°23' W 000°44'4 8.0
2017-Dec-10 02:00N 37°23' W 000°39'12 8.0
2017-Dec-10 00:30N 37°23' W 000°24'6 8.3
2017-Dec-09 23:44N 37°24' W 000°16'8 8.2
2017-Dec-09 22:48N 37°24' W 000°07'  
2017-Dec-07 04:43N 36°22' E 013°44'311.2
2017-Dec-07 04:25N 36°21' E 013°48'511.2
2017-Dec-07 04:00N 36°19' E 013°53'611.2
2017-Dec-07 03:30N 36°16' E 013°59'611.1
2017-Dec-07 03:00N 36°13' E 014°06'510.7
2017-Dec-07 02:30N 36°11' E 014°11'611.1
2017-Dec-07 02:00N 36°08' E 014°17'510.8
2017-Dec-07 01:30N 36°06' E 014°23'510.8
2017-Dec-07 01:00N 36°03' E 014°29'611.1
2017-Dec-07 00:30N 36°00' E 014°35'611.1
2017-Dec-06 23:59N 35°57' E 014°40'5 9.9
2017-Dec-06 23:29N 35°53' E 014°45'  
2017-Dec-02 23:30N 31°16' E 029°42'  

Dump ship's entire track history